Time;durP1;ratioP1;P1;durP2;ratioP2;P2;SDS_P1;SDS_P2;PMS_P1;PMS_P2;Temp;Humidity;BMP_temperature;BMP_pressure;BME280_temperature;BME280_humidity;BME280_pressure;Samples;Min_cycle;Max_cycle;Signal;HPM_P1;HPM_P2
2024/01/31 00:01:20;;;;;;;19.40;11.90;;;;;;;-1.04;75.02;101395.92;105982;1256;59972;-74
2024/01/31 00:03:47;;;;;;;17.30;11.30;;;;;;;-0.95;74.82;101392.67;105553;1254;73063;-74
2024/01/31 00:06:15;;;;;;;17.90;12.70;;;;;;;-0.90;74.68;101391.46;105822;1254;70196;-74
2024/01/31 00:08:42;;;;;;;17.70;11.80;;;;;;;-0.94;74.61;101386.89;105796;1260;70745;-74
2024/01/31 00:11:10;;;;;;;18.90;13.00;;;;;;;-0.99;74.70;101384.81;105781;1253;59648;-74
2024/01/31 00:13:37;;;;;;;17.80;11.70;;;;;;;-1.03;74.88;101387.36;105830;1258;60082;-75
2024/01/31 00:16:05;;;;;;;19.80;13.00;;;;;;;-0.97;74.96;101386.30;105889;1257;73027;-74
2024/01/31 00:18:34;;;;;;;21.70;13.30;;;;;;;-0.90;74.77;101392.30;105856;1254;70294;-73
2024/01/31 00:21:01;;;;;;;19.60;12.00;;;;;;;-0.95;74.61;101389.02;105917;1254;72703;-73
2024/01/31 00:23:29;;;;;;;20.80;13.50;;;;;;;-1.02;74.95;101389.94;105827;1254;59534;-75
2024/01/31 00:25:57;;;;;;;20.40;13.30;;;;;;;-1.08;75.09;101382.32;105891;1254;60707;-73
2024/01/31 00:28:25;;;;;;;18.50;12.40;;;;;;;-1.07;75.18;101384.39;105826;1257;73261;-74
2024/01/31 00:30:52;;;;;;;18.50;12.40;;;;;;;-0.98;75.01;101380.42;105919;1260;70294;-74
2024/01/31 00:33:20;;;;;;;19.10;13.60;;;;;;;-0.99;74.89;101380.64;105936;1254;72617;-76
2024/01/31 00:35:47;;;;;;;19.20;13.00;;;;;;;-1.04;74.95;101382.36;105918;1257;59765;-74
2024/01/31 00:38:14;;;;;;;20.00;11.90;;;;;;;-1.08;75.08;101380.93;105817;1259;59493;-75
2024/01/31 00:40:42;;;;;;;18.60;11.70;;;;;;;-1.08;74.90;101377.13;105863;1254;73092;-73
2024/01/31 00:43:10;;;;;;;18.10;12.00;;;;;;;-0.96;74.82;101372.69;105966;1254;69963;-73
2024/01/31 00:45:37;;;;;;;21.00;13.30;;;;;;;-0.92;74.53;101366.98;105903;1257;71390;-73
2024/01/31 00:48:05;;;;;;;18.70;12.00;;;;;;;-0.96;74.65;101363.48;106451;1259;60070;-73
2024/01/31 00:50:32;;;;;;;17.90;13.30;;;;;;;-1.00;74.66;101369.00;108127;1258;59647;-74
2024/01/31 00:53:00;;;;;;;17.70;12.10;;;;;;;-1.03;74.87;101372.23;108978;1254;71583;-74
2024/01/31 00:55:27;;;;;;;18.20;11.60;;;;;;;-1.02;74.89;101370.83;107111;1254;70356;-74
2024/01/31 00:57:55;;;;;;;19.40;11.80;;;;;;;-0.89;74.58;101370.36;105999;1255;71374;-73
2024/01/31 01:00:23;;;;;;;19.30;12.40;;;;;;;-0.83;74.48;101371.35;105993;1254;59631;-73
2024/01/31 01:02:50;;;;;;;23.10;13.60;;;;;;;-0.86;74.33;101370.09;105859;1252;60024;-73
2024/01/31 01:05:20;;;;;;;21.10;12.90;;;;;;;-0.90;74.44;101361.52;105926;1256;73027;-73
2024/01/31 01:07:47;;;;;;;19.20;12.20;;;;;;;-0.94;74.50;101358.55;105915;1257;69011;-71
2024/01/31 01:10:15;;;;;;;18.20;12.30;;;;;;;-0.98;74.47;101355.55;105901;1254;72640;-73
2024/01/31 01:12:43;;;;;;;19.30;12.20;;;;;;;-0.88;74.44;101353.97;106076;1254;60860;-72
2024/01/31 01:15:10;;;;;;;19.70;12.50;;;;;;;-0.83;74.21;101346.32;105986;1259;60083;-72
2024/01/31 01:17:43;;;;;;;18.90;12.50;;;;;;;-0.88;74.19;101342.67;105760;1261;73079;-72
2024/01/31 01:20:10;;;;;;;19.90;13.70;;;;;;;-0.93;74.28;101349.14;105668;1258;70006;-74
2024/01/31 01:22:38;;;;;;;20.70;13.60;;;;;;;-0.98;74.45;101345.46;105827;1254;72740;-73
2024/01/31 01:25:06;;;;;;;25.70;13.20;;;;;;;-1.01;74.61;101346.79;105958;1257;60086;-75
2024/01/31 01:27:34;;;;;;;21.40;13.00;;;;;;;-0.93;74.45;101340.77;105827;1253;59740;-75
2024/01/31 01:30:02;;;;;;;21.70;13.10;;;;;;;-0.83;74.48;101340.91;105907;1257;73049;-74
2024/01/31 01:32:30;;;;;;;20.50;13.40;;;;;;;-0.85;74.18;101335.42;105705;1257;70275;-74
2024/01/31 01:34:57;;;;;;;24.00;14.30;;;;;;;-0.88;74.14;101327.20;105908;1257;72432;-74
2024/01/31 01:37:25;;;;;;;22.20;14.00;;;;;;;-0.91;74.24;101319.83;105906;1257;59708;-74
2024/01/31 01:39:52;;;;;;;19.70;13.30;;;;;;;-0.92;74.27;101314.30;105996;1254;60493;-74
2024/01/31 01:42:19;;;;;;;18.60;11.70;;;;;;;-0.90;74.11;101312.99;105999;1255;71800;-74
2024/01/31 01:44:47;;;;;;;19.70;12.90;;;;;;;-0.77;73.73;101309.39;105990;1255;67696;-74
2024/01/31 01:47:15;;;;;;;17.60;11.60;;;;;;;-0.75;73.68;101307.77;106255;1255;72997;-72
2024/01/31 01:49:43;;;;;;;21.20;13.00;;;;;;;-0.80;73.78;101308.27;108403;1254;59727;-73
2024/01/31 01:52:11;;;;;;;22.80;14.30;;;;;;;-0.83;73.96;101305.09;109319;1254;58912;-73
2024/01/31 01:54:38;;;;;;;16.90;11.40;;;;;;;-0.86;74.11;101302.56;107488;1258;71769;-75
2024/01/31 01:57:07;;;;;;;18.40;12.00;;;;;;;-0.78;73.95;101296.56;106105;1259;70330;-74
2024/01/31 01:59:34;;;;;;;18.40;12.30;;;;;;;-0.72;73.60;101294.77;106076;1259;71463;-74
2024/01/31 02:02:02;;;;;;;22.90;13.70;;;;;;;-0.76;73.53;101293.69;105960;1256;59937;-73
2024/01/31 02:04:29;;;;;;;20.20;12.60;;;;;;;-0.80;73.63;101291.42;105900;1260;59544;-74
2024/01/31 02:06:57;;;;;;;22.10;15.00;;;;;;;-0.83;73.53;101297.78;105918;1258;72794;-74
2024/01/31 02:09:26;;;;;;;19.30;12.20;;;;;;;-0.84;73.47;101296.44;105844;1259;68918;-73
2024/01/31 02:11:53;;;;;;;20.30;12.10;;;;;;;-0.75;73.31;101290.52;105579;1257;72469;-74
2024/01/31 02:14:21;;;;;;;16.50;11.40;;;;;;;-0.65;72.89;101289.11;105850;1256;59618;-74
2024/01/31 02:16:48;;;;;;;18.10;12.40;;;;;;;-0.68;72.74;101286.10;106013;1257;60110;-73
2024/01/31 02:19:15;;;;;;;18.40;12.50;;;;;;;-0.73;72.70;101295.68;106018;1259;71802;-74
2024/01/31 02:21:46;;;;;;;17.80;11.70;;;;;;;-0.77;72.84;101295.31;105975;1257;70788;-74
2024/01/31 02:24:13;;;;;;;18.20;11.20;;;;;;;-0.80;72.70;101295.77;105927;1256;71406;-74
2024/01/31 02:26:40;;;;;;;16.40;11.00;;;;;;;-0.79;72.93;101297.11;106020;1257;60420;-73
2024/01/31 02:29:08;;;;;;;17.10;10.80;;;;;;;-0.69;72.77;101294.81;106092;1256;59618;-73
2024/01/31 02:31:35;;;;;;;19.60;12.30;;;;;;;-0.70;72.54;101288.77;105869;1260;73452;-75
2024/01/31 02:34:03;;;;;;;18.10;11.80;;;;;;;-0.73;72.59;101287.00;105854;1254;68927;-74
2024/01/31 02:36:30;;;;;;;15.70;10.70;;;;;;;-0.79;72.82;101294.13;105853;1254;72734;-73
2024/01/31 02:38:58;;;;;;;23.20;14.20;;;;;;;-0.83;73.00;101295.70;106014;1254;59734;-74
2024/01/31 02:41:25;;;;;;;19.30;12.90;;;;;;;-0.85;73.19;101289.84;106050;1257;59651;-74
2024/01/31 02:43:53;;;;;;;16.00;10.70;;;;;;;-0.75;73.00;101288.61;106051;1254;73135;-71
2024/01/31 02:46:20;;;;;;;18.20;11.50;;;;;;;-0.76;73.01;101283.08;106667;1254;70644;-73
2024/01/31 02:48:48;;;;;;;20.10;12.40;;;;;;;-0.80;73.12;101284.97;108733;1254;71687;-75
2024/01/31 02:51:16;;;;;;;16.90;11.60;;;;;;;-0.84;73.16;101280.94;108527;1254;60335;-74
2024/01/31 02:53:44;;;;;;;17.60;11.30;;;;;;;-0.86;73.45;101274.59;105855;1254;60524;-75
2024/01/31 02:56:11;;;;;;;18.80;11.70;;;;;;;-0.85;73.46;101275.77;105932;1261;73836;-74
2024/01/31 02:58:38;;;;;;;17.50;11.40;;;;;;;-0.73;73.38;101268.89;105994;1257;69588;-75
2024/01/31 03:01:06;;;;;;;18.80;11.80;;;;;;;-0.71;73.15;101267.23;105841;1255;72718;-73
2024/01/31 03:03:34;;;;;;;19.50;12.40;;;;;;;-0.75;73.05;101266.17;106128;1254;60482;-73
2024/01/31 03:06:02;;;;;;;20.50;12.80;;;;;;;-0.79;73.27;101263.17;105895;1257;61128;-73
2024/01/31 03:08:29;;;;;;;24.40;12.90;;;;;;;-0.82;73.45;101264.70;105874;1256;73951;-74
2024/01/31 03:10:56;;;;;;;24.90;15.70;;;;;;;-0.83;73.45;101265.06;105993;1254;69704;-72
2024/01/31 03:13:24;;;;;;;17.80;11.40;;;;;;;-0.71;73.41;101267.05;105850;1259;71456;-75
2024/01/31 03:15:51;;;;;;;20.00;12.70;;;;;;;-0.70;73.39;101265.61;106009;1258;60479;-74
2024/01/31 03:18:19;;;;;;;21.80;13.90;;;;;;;-0.75;73.27;101272.27;105715;1254;60393;-74
2024/01/31 03:20:46;;;;;;;15.60;10.90;;;;;;;-0.81;73.53;101273.02;105842;1258;75547;-73
2024/01/31 03:23:13;;;;;;;18.20;12.70;;;;;;;-0.88;73.68;101269.94;105877;1257;69857;-73
2024/01/31 03:25:41;;;;;;;16.90;11.10;;;;;;;-0.92;73.79;101269.93;105928;1254;72715;-74
2024/01/31 03:28:08;;;;;;;16.80;11.90;;;;;;;-0.86;73.83;101270.77;105850;1254;60882;-73
2024/01/31 03:30:36;;;;;;;17.00;11.80;;;;;;;-0.77;73.66;101265.02;105884;1257;60520;-73
2024/01/31 03:33:03;;;;;;;18.00;11.70;;;;;;;-0.80;73.57;101267.05;105907;1257;73816;-73
2024/01/31 03:35:31;;;;;;;18.20;11.90;;;;;;;-0.88;73.82;101271.16;105973;1254;70190;-73
2024/01/31 03:37:59;;;;;;;19.00;12.30;;;;;;;-0.94;73.84;101261.85;105775;1254;72964;-73
2024/01/31 03:40:26;;;;;;;19.60;12.10;;;;;;;-1.00;74.13;101266.23;105862;1254;60552;-73
2024/01/31 03:42:53;;;;;;;19.40;12.40;;;;;;;-1.02;74.34;101261.60;106092;1257;61927;-74
2024/01/31 03:45:21;;;;;;;20.20;12.20;;;;;;;-0.93;74.12;101260.92;106299;1254;73900;-74
2024/01/31 03:47:48;;;;;;;19.20;13.10;;;;;;;-0.90;74.07;101263.45;107011;1255;69198;-73
2024/01/31 03:50:16;;;;;;;20.70;13.70;;;;;;;-0.96;74.15;101263.11;107003;1256;72656;-74
2024/01/31 03:52:43;;;;;;;22.20;14.80;;;;;;;-1.01;74.30;101259.83;105661;1255;60574;-73
2024/01/31 03:55:11;;;;;;;20.80;14.40;;;;;;;-1.05;74.42;101263.61;105953;1257;60428;-74
2024/01/31 03:57:38;;;;;;;21.40;14.10;;;;;;;-1.06;74.58;101264.04;106052;1257;73775;-73
2024/01/31 04:00:08;;;;;;;19.80;13.50;;;;;;;-0.99;74.46;101262.88;105921;1253;69923;-71
2024/01/31 04:02:37;;;;;;;20.40;14.20;;;;;;;-0.94;74.31;101258.88;106003;1253;70587;-74
2024/01/31 04:05:04;;;;;;;21.40;14.20;;;;;;;-0.97;74.29;101254.30;105932;1257;60552;-75
2024/01/31 04:07:32;;;;;;;24.50;14.50;;;;;;;-1.03;74.70;101251.58;105873;1257;60351;-73
2024/01/31 04:10:00;;;;;;;19.40;12.80;;;;;;;-1.08;74.81;101247.92;105877;1253;72586;-74
2024/01/31 04:12:27;;;;;;;18.10;12.50;;;;;;;-1.00;74.71;101244.67;105830;1255;70060;-74
2024/01/31 04:14:55;;;;;;;26.10;16.70;;;;;;;-0.96;74.58;101241.24;105814;1254;70543;-74
2024/01/31 04:17:22;;;;;;;26.10;16.70;;;;;;;-1.02;74.56;101236.02;105644;1254;60488;-75
2024/01/31 04:19:49;;;;;;;29.40;16.80;;;;;;;-1.05;74.63;101228.84;105849;1257;60510;-74
2024/01/31 04:22:17;;;;;;;22.50;14.70;;;;;;;-1.07;74.93;101227.89;106021;1257;73842;-72
2024/01/31 04:24:44;;;;;;;25.00;16.20;;;;;;;-1.01;74.82;101228.52;105827;1257;70432;-74
2024/01/31 04:27:12;;;;;;;24.20;16.70;;;;;;;-0.94;74.50;101224.09;105745;1254;72694;-74
2024/01/31 04:29:40;;;;;;;20.30;14.70;;;;;;;-1.00;74.59;101220.66;105784;1254;60581;-74
2024/01/31 04:32:07;;;;;;;20.50;13.10;;;;;;;-1.07;74.76;101223.36;105765;1253;60380;-74
2024/01/31 04:34:38;;;;;;;20.20;13.00;;;;;;;-1.10;75.09;101221.23;105825;1257;75896;-73
2024/01/31 04:37:06;;;;;;;18.30;11.80;;;;;;;-1.01;74.97;101218.61;106000;1254;70298;-72
2024/01/31 04:39:35;;;;;;;22.30;13.50;;;;;;;-1.00;74.89;101222.92;106048;1254;70446;-71
2024/01/31 04:42:03;;;;;;;23.20;14.30;;;;;;;-1.05;74.98;101232.16;106520;1254;60298;-72
2024/01/31 04:44:30;;;;;;;32.10;18.90;;;;;;;-1.08;75.07;101235.38;107080;1254;60429;-71
2024/01/31 04:46:58;;;;;;;20.80;13.20;;;;;;;-1.09;75.00;101236.11;107105;1257;72569;-71
2024/01/31 04:49:25;;;;;;;19.00;12.10;;;;;;;-1.01;75.10;101233.05;106366;1254;70104;-71
2024/01/31 04:51:53;;;;;;;15.50;11.80;;;;;;;-0.86;74.77;101232.33;105775;1258;72678;-72
2024/01/31 04:54:20;;;;;;;19.70;11.80;;;;;;;-0.85;74.57;101232.26;105658;1253;60502;-72
2024/01/31 04:56:48;;;;;;;18.00;12.20;;;;;;;-0.87;74.43;101230.95;105565;1254;60498;-74
2024/01/31 04:59:15;;;;;;;24.70;13.50;;;;;;;-0.89;74.64;101227.20;105898;1252;73775;-72
2024/01/31 05:01:43;;;;;;;19.20;12.90;;;;;;;-0.90;74.44;101226.03;105903;1257;68330;-74
2024/01/31 05:04:10;;;;;;;21.90;13.80;;;;;;;-0.89;74.38;101225.45;105901;1254;72715;-73
2024/01/31 05:06:38;;;;;;;21.80;13.90;;;;;;;-0.75;74.27;101225.47;105999;1254;60536;-72
2024/01/31 05:09:06;;;;;;;24.40;15.10;;;;;;;-0.73;74.08;101223.48;106001;1256;60266;-75
2024/01/31 05:11:34;;;;;;;17.20;12.00;;;;;;;-0.78;74.08;101225.92;106044;1255;73882;-74
2024/01/31 05:14:01;;;;;;;19.40;13.50;;;;;;;-0.83;74.02;101221.23;106094;1254;72709;-74
2024/01/31 05:16:29;;;;;;;18.70;12.30;;;;;;;-0.88;74.21;101219.86;106043;1256;72727;-74
2024/01/31 05:18:56;;;;;;;19.50;12.30;;;;;;;-0.87;74.17;101217.90;105956;1260;60485;-74
2024/01/31 05:21:24;;;;;;;20.10;13.00;;;;;;;-0.78;74.05;101214.11;106126;1257;60399;-74
2024/01/31 05:23:51;;;;;;;19.10;13.40;;;;;;;-0.79;73.85;101209.77;106022;1257;72718;-75
2024/01/31 05:26:19;;;;;;;20.30;13.60;;;;;;;-0.84;73.91;101210.83;105672;1254;70304;-75
2024/01/31 05:28:46;;;;;;;21.00;13.90;;;;;;;-0.88;74.12;101209.41;105904;1254;72654;-73
2024/01/31 05:31:13;;;;;;;21.30;13.50;;;;;;;-0.90;74.15;101204.63;105902;1254;60405;-75
2024/01/31 05:33:41;;;;;;;19.60;13.20;;;;;;;-0.81;74.09;101203.41;105950;1257;60412;-75
2024/01/31 05:36:08;;;;;;;20.40;13.20;;;;;;;-0.76;73.80;101202.89;106024;1254;73938;-74
2024/01/31 05:38:36;;;;;;;19.90;13.50;;;;;;;-0.80;73.86;101200.90;106132;1257;68838;-73
2024/01/31 05:41:03;;;;;;;25.00;15.70;;;;;;;-0.82;73.79;101198.23;106216;1254;72310;-75
2024/01/31 05:43:30;;;;;;;24.90;15.90;;;;;;;-0.86;74.02;101198.73;106571;1257;60217;-75
2024/01/31 05:45:58;;;;;;;24.50;15.70;;;;;;;-0.85;73.96;101197.13;108802;1253;59032;-76
2024/01/31 05:48:26;;;;;;;26.40;17.00;;;;;;;-0.80;73.92;101195.88;108895;1254;71290;-74
2024/01/31 05:50:54;;;;;;;24.30;14.70;;;;;;;-0.83;73.98;101199.12;107665;1253;68889;-76
2024/01/31 05:53:21;;;;;;;22.80;15.10;;;;;;;-0.88;74.11;101200.90;106146;1254;71537;-77
2024/01/31 05:55:49;;;;;;;21.80;14.70;;;;;;;-0.91;74.29;101199.96;106052;1254;60402;-77
2024/01/31 05:58:19;;;;;;;26.70;16.80;;;;;;;-0.91;74.35;101202.06;105932;1253;60392;-75
2024/01/31 06:00:49;;;;;;;23.70;15.50;;;;;;;-0.79;74.15;101197.76;106029;1254;73026;-77
2024/01/31 06:03:16;;;;;;;23.80;15.80;;;;;;;-0.73;73.84;101200.36;106153;1256;68613;-76
2024/01/31 06:05:44;;;;;;;29.10;17.80;;;;;;;-0.76;73.66;101202.70;107031;1253;72323;-77
2024/01/31 06:08:11;;;;;;;27.30;17.40;;;;;;;-0.79;73.94;101198.46;108711;1253;57964;-76
2024/01/31 06:10:39;;;;;;;27.10;16.30;;;;;;;-0.79;73.92;101195.86;106450;1254;61103;-76
2024/01/31 06:13:06;;;;;;;24.80;15.80;;;;;;;-0.71;73.83;101199.20;106072;1254;71897;-76
2024/01/31 06:15:34;;;;;;;27.70;16.50;;;;;;;-0.64;73.49;101197.73;105877;1257;70414;-78
2024/01/31 06:18:01;;;;;;;26.90;16.90;;;;;;;-0.66;73.34;101199.00;105866;1257;72640;-77
2024/01/31 06:20:29;;;;;;;24.90;15.80;;;;;;;-0.67;73.33;101204.77;105974;1257;60526;-76
2024/01/31 06:22:56;;;;;;;22.30;13.80;;;;;;;-0.67;73.36;101205.13;105930;1255;60397;-76
2024/01/31 06:25:24;;;;;;;27.70;16.80;;;;;;;-0.58;73.36;101210.72;105972;1254;73827;-76
2024/01/31 06:27:51;;;;;;;28.30;17.80;;;;;;;-0.49;72.90;101207.04;106019;1257;69133;-78
2024/01/31 06:30:30;;;;;;;30.90;18.80;;;;;;;-0.51;72.79;101204.31;105794;1254;71056;-76
2024/01/31 06:33:07;;;;;;;28.00;17.20;;;;;;;-0.54;72.84;101203.40;105889;1254;60411;-76
2024/01/31 06:35:35;;;;;;;32.00;16.20;;;;;;;-0.55;72.94;101197.90;105810;1252;60347;-77
2024/01/31 06:38:03;;;;;;;26.70;15.60;;;;;;;-0.51;72.80;101192.85;105904;1256;73824;-77
2024/01/31 06:40:30;;;;;;;26.60;15.70;;;;;;;-0.41;72.41;101198.70;105922;1257;67724;-77
2024/01/31 06:42:58;;;;;;;28.20;16.40;;;;;;;-0.37;72.15;101196.64;107846;1253;71445;-75
2024/01/31 06:45:27;;;;;;;25.90;16.00;;;;;;;-0.37;72.02;101199.77;109185;1253;61207;-76
2024/01/31 06:47:54;;;;;;;27.00;16.20;;;;;;;-0.35;71.98;101198.46;108741;1254;60903;-77
2024/01/31 06:50:22;;;;;;;24.70;15.20;;;;;;;-0.32;71.97;101200.08;106321;1253;72539;-78
2024/01/31 06:52:49;;;;;;;21.90;14.30;;;;;;;-0.25;71.42;101200.48;106398;1254;71035;-76
2024/01/31 06:55:17;;;;;;;27.10;16.50;;;;;;;-0.11;71.11;101196.43;106145;1257;71599;-77
2024/01/31 06:57:44;;;;;;;23.00;14.60;;;;;;;-0.07;70.88;101198.01;105872;1253;60402;-76
2024/01/31 07:00:15;;;;;;;25.60;15.80;;;;;;;-0.08;70.68;101189.88;105945;1254;60446;-77
2024/01/31 07:02:42;;;;;;;24.60;16.30;;;;;;;-0.08;70.78;101190.91;105948;1256;76056;-76
2024/01/31 07:05:10;;;;;;;23.40;14.20;;;;;;;-0.09;70.80;101189.73;105977;1254;70118;-76
2024/01/31 07:07:37;;;;;;;27.50;15.70;;;;;;;-0.11;70.72;101189.45;105821;1259;70890;-75
2024/01/31 07:10:05;;;;;;;25.60;15.90;;;;;;;-0.07;70.75;101187.73;105881;1256;60745;-76
2024/01/31 07:12:33;;;;;;;25.40;16.00;;;;;;;0.03;70.51;101178.44;105848;1256;60520;-76
2024/01/31 07:15:00;;;;;;;27.90;17.30;;;;;;;0.06;70.27;101178.49;105932;1254;73833;-76
2024/01/31 07:17:27;;;;;;;26.00;17.60;;;;;;;0.07;70.14;101170.41;105990;1256;68699;-75
2024/01/31 07:19:55;;;;;;;22.90;16.70;;;;;;;0.11;70.27;101165.71;106045;1254;72446;-75
2024/01/31 07:22:22;;;;;;;26.40;18.70;;;;;;;0.15;69.75;101165.38;106135;1254;60434;-76
2024/01/31 07:24:50;;;;;;;25.90;18.50;;;;;;;0.19;69.57;101160.84;105824;1254;60577;-77
2024/01/31 07:27:17;;;;;;;27.10;17.50;;;;;;;0.25;69.62;101164.44;105915;1256;73774;-76
2024/01/31 07:29:48;;;;;;;25.90;18.10;;;;;;;0.30;69.21;101161.40;105967;1254;69989;-76
2024/01/31 07:32:15;;;;;;;28.10;17.20;;;;;;;0.38;69.25;101167.16;105931;1255;70894;-77
2024/01/31 07:34:43;;;;;;;25.80;17.60;;;;;;;0.53;69.05;101170.17;105948;1254;60994;-75
2024/01/31 07:37:10;;;;;;;23.70;16.10;;;;;;;0.69;68.63;101169.46;105967;1252;61840;-76
2024/01/31 07:39:38;;;;;;;22.20;16.10;;;;;;;0.75;68.49;101171.27;106323;1254;73931;-76
2024/01/31 07:42:06;;;;;;;24.70;16.00;;;;;;;0.76;67.92;101180.81;106293;1253;69755;-77
2024/01/31 07:44:34;;;;;;;23.20;16.50;;;;;;;0.74;67.73;101178.78;109097;1253;71350;-77
2024/01/31 07:47:03;;;;;;;21.90;15.20;;;;;;;0.73;67.78;101177.80;108831;1254;59069;-76
2024/01/31 07:49:31;;;;;;;23.20;15.70;;;;;;;0.72;67.78;101174.89;106370;1254;60446;-75
2024/01/31 07:51:58;;;;;;;22.90;14.60;;;;;;;0.70;67.68;101181.58;106223;1253;72570;-75
2024/01/31 07:54:26;;;;;;;25.00;16.40;;;;;;;0.68;67.72;101177.89;106094;1254;70549;-77
2024/01/31 07:56:53;;;;;;;24.60;15.70;;;;;;;0.65;67.80;101181.66;105891;1256;71788;-77
2024/01/31 07:59:20;;;;;;;23.20;14.90;;;;;;;0.64;67.70;101182.77;105831;1255;60885;-76
2024/01/31 08:01:48;;;;;;;22.80;13.80;;;;;;;0.63;67.82;101185.06;105820;1254;60542;-76
2024/01/31 08:04:15;;;;;;;22.40;15.10;;;;;;;0.62;67.77;101180.73;105823;1257;73802;-75
2024/01/31 08:06:43;;;;;;;20.90;14.30;;;;;;;0.61;67.82;101184.11;105929;1254;70640;-77
2024/01/31 08:09:11;;;;;;;21.90;14.60;;;;;;;0.58;67.88;101181.63;105772;1254;73049;-76
2024/01/31 08:11:49;;;;;;;24.20;13.60;;;;;;;0.54;68.08;101179.14;105886;1254;60520;-76
2024/01/31 08:14:16;;;;;;;22.60;15.30;;;;;;;0.51;68.28;101175.45;105955;1254;60425;-76
2024/01/31 08:16:44;;;;;;;22.90;14.30;;;;;;;0.49;68.28;101171.55;105832;1252;72374;-75
2024/01/31 08:19:12;;;;;;;22.00;14.20;;;;;;;0.54;68.22;101167.47;105994;1254;70620;-76
2024/01/31 08:21:40;;;;;;;24.50;15.70;;;;;;;0.61;68.10;101165.30;105828;1260;71749;-77
2024/01/31 08:24:07;;;;;;;23.70;15.40;;;;;;;0.63;68.24;101164.13;105957;1256;60438;-77
2024/01/31 08:26:34;;;;;;;24.40;17.40;;;;;;;0.72;68.25;101163.89;105977;1254;60459;-77
2024/01/31 08:29:02;;;;;;;23.70;16.00;;;;;;;0.87;68.05;101163.40;105933;1254;73833;-79
2024/01/31 08:31:46;;;;;;;24.80;16.10;;;;;;;1.03;67.33;101158.99;106994;1256;68244;-81
2024/01/31 08:34:14;;;;;;;21.80;13.70;;;;;;;1.18;66.82;101162.27;106329;1254;70915;-79
2024/01/31 08:36:42;;;;;;;22.20;16.10;;;;;;;1.34;66.17;101158.53;106126;1254;60456;-79
2024/01/31 08:39:09;;;;;;;23.10;15.30;;;;;;;1.51;65.57;101160.70;106116;1254;60543;-78
2024/01/31 08:41:37;;;;;;;22.60;14.80;;;;;;;1.67;65.28;101155.38;106599;1253;74034;-78
2024/01/31 08:44:05;;;;;;;26.40;17.20;;;;;;;1.85;64.47;101155.52;109087;1253;68669;-77
2024/01/31 08:46:32;;;;;;;23.20;15.10;;;;;;;2.01;64.03;101157.00;108005;1253;73334;-77
2024/01/31 08:49:10;;;;;;;26.00;16.20;;;;;;;2.16;63.05;101157.63;106408;1254;61001;-77
2024/01/31 08:51:38;;;;;;;25.20;16.00;;;;;;;2.25;62.73;101147.52;106355;1252;62328;-77
2024/01/31 08:54:07;;;;;;;22.70;15.60;;;;;;;2.35;62.76;101143.33;106364;1253;75104;-79
2024/01/31 08:56:34;;;;;;;27.20;16.80;;;;;;;2.49;61.91;101142.42;105937;1254;70576;-78
2024/01/31 08:59:02;;;;;;;24.10;15.00;;;;;;;2.63;61.77;101135.53;105951;1254;72821;-76
2024/01/31 09:01:29;;;;;;;22.10;14.50;;;;;;;2.78;61.08;101126.52;105826;1254;60498;-77
2024/01/31 09:03:57;;;;;;;21.70;15.20;;;;;;;2.91;60.79;101125.08;105915;1254;60453;-77
2024/01/31 09:06:25;;;;;;;19.00;13.90;;;;;;;3.02;60.25;101119.41;106060;1254;73912;-80
2024/01/31 09:08:52;;;;;;;24.40;14.80;;;;;;;3.15;60.11;101115.19;106070;1254;70666;-77
2024/01/31 09:11:20;;;;;;;21.50;13.70;;;;;;;3.28;59.42;101108.65;106012;1254;73259;-81
2024/01/31 09:13:49;;;;;;;21.90;14.40;;;;;;;3.33;58.90;101104.86;106369;1252;61200;-78
2024/01/31 09:16:17;;;;;;;22.80;14.00;;;;;;;3.35;58.97;101099.16;107444;1254;61074;-79
2024/01/31 09:18:45;;;;;;;19.80;14.70;;;;;;;3.39;58.15;101102.25;107805;1254;72654;-79
2024/01/31 09:21:26;;;;;;;23.40;15.60;;;;;;;3.51;58.34;101099.63;107470;1256;71577;-77
2024/01/31 09:23:54;;;;;;;21.60;14.90;;;;;;;3.73;57.92;101092.55;106305;1254;72720;-78
2024/01/31 09:26:21;;;;;;;27.30;16.40;;;;;;;4.00;57.36;101089.21;106049;1254;60497;-76
2024/01/31 09:28:50;;;;;;;23.10;15.90;;;;;;;4.33;56.52;101085.27;106002;1254;60341;-79
2024/01/31 09:31:25;;;;;;;24.10;16.90;;;;;;;4.70;55.86;101081.06;106128;1254;73182;-79
2024/01/31 09:33:53;;;;;;;24.40;16.50;;;;;;;5.08;54.92;101081.90;106206;1254;69447;-78
2024/01/31 09:36:22;;;;;;;25.50;18.00;;;;;;;5.44;53.96;101080.79;106335;1256;73659;-79
2024/01/31 09:38:50;;;;;;;29.20;19.50;;;;;;;5.78;53.59;101076.05;106678;1254;60549;-79
2024/01/31 09:41:18;;;;;;;29.80;19.20;;;;;;;6.04;52.21;101073.61;106797;1252;59269;-78
2024/01/31 09:43:45;;;;;;;28.40;20.90;;;;;;;6.11;52.03;101058.14;109153;1253;74767;-78
2024/01/31 09:46:13;;;;;;;30.10;20.00;;;;;;;6.20;51.59;101059.82;109041;1254;68703;-77
2024/01/31 09:48:41;;;;;;;28.90;20.70;;;;;;;6.34;51.18;101051.67;106771;1253;72049;-78
2024/01/31 09:51:09;;;;;;;28.70;19.30;;;;;;;6.57;51.22;101045.40;106529;1254;60537;-79
2024/01/31 09:53:36;;;;;;;26.50;19.40;;;;;;;6.91;50.28;101043.34;106353;1256;60537;-79
2024/01/31 09:56:05;;;;;;;25.80;19.90;;;;;;;7.20;49.86;101042.55;106086;1254;74347;-81
2024/01/31 09:58:33;;;;;;;34.60;19.00;;;;;;;7.53;49.10;101040.63;106148;1255;72888;-78
2024/01/31 10:01:03;;;;;;;28.00;19.90;;;;;;;7.87;48.26;101044.40;105919;1258;73579;-78
2024/01/31 10:03:41;;;;;;;24.60;18.30;;;;;;;8.12;47.47;101032.77;106130;1254;60520;-76
2024/01/31 10:06:08;;;;;;;26.70;18.90;;;;;;;8.20;46.92;101030.55;106065;1254;60536;-78
2024/01/31 10:08:39;;;;;;;29.20;19.90;;;;;;;8.12;46.94;101025.39;106012;1254;72818;-78
2024/01/31 10:11:07;;;;;;;26.90;20.00;;;;;;;8.01;47.18;101014.55;106290;1256;72604;-75
2024/01/31 10:13:34;;;;;;;26.80;19.30;;;;;;;8.11;46.92;101017.16;106350;1257;71935;-75
2024/01/31 10:16:02;;;;;;;25.70;19.60;;;;;;;8.25;46.71;101013.91;106050;1256;60408;-76
2024/01/31 10:18:29;;;;;;;26.90;20.10;;;;;;;8.49;46.64;101017.15;106164;1257;60337;-74
2024/01/31 10:20:57;;;;;;;25.10;19.60;;;;;;;8.79;45.98;101018.57;106952;1252;72172;-74
2024/01/31 10:23:25;;;;;;;24.40;18.60;;;;;;;9.01;45.54;101020.72;109164;1252;69183;-75
2024/01/31 10:25:55;;;;;;;26.90;19.20;;;;;;;9.20;45.27;101018.23;108428;1258;73738;-74
2024/01/31 10:28:23;;;;;;;24.20;17.40;;;;;;;9.51;44.64;101024.35;105979;1256;60427;-76
2024/01/31 10:30:50;;;;;;;19.50;15.40;;;;;;;9.82;44.23;101009.31;105930;1256;60437;-75
2024/01/31 10:33:20;;;;;;;23.00;16.10;;;;;;;10.19;43.61;101008.19;105946;1256;74252;-75
2024/01/31 10:35:48;;;;;;;20.10;15.60;;;;;;;10.50;43.13;101004.98;105967;1259;69240;-75
2024/01/31 10:38:35;;;;;;;20.60;17.00;;;;;;;10.76;42.33;100997.52;106082;1256;77065;-75
2024/01/31 10:41:06;;;;;;;22.20;16.50;;;;;;;11.06;42.30;100995.64;106939;1253;62258;-76
2024/01/31 10:43:34;;;;;;;22.80;17.80;;;;;;;11.36;41.94;100993.14;108999;1253;59733;-76
2024/01/31 10:46:02;;;;;;;22.70;17.20;;;;;;;11.61;41.28;100997.55;108224;1256;72445;-77
2024/01/31 10:48:33;;;;;;;21.30;16.60;;;;;;;11.63;41.06;100994.12;106184;1257;71011;-77
2024/01/31 10:51:01;;;;;;;20.30;15.40;;;;;;;11.42;40.97;100996.27;106017;1255;72457;-77
2024/01/31 10:53:29;;;;;;;20.70;15.80;;;;;;;11.20;40.88;100987.63;105885;1253;60543;-76
2024/01/31 10:55:56;;;;;;;18.80;14.90;;;;;;;11.08;41.12;100990.74;105389;1258;757347;-76
2024/01/31 11:00:48;;;;;;;20.90;14.80;;;;;;;11.18;41.14;100983.29;103007;1292;599918;-76
2024/01/31 11:03:16;;;;;;;17.80;13.80;;;;;;;11.24;40.53;100976.11;105067;1274;58945;-76
2024/01/31 11:05:44;;;;;;;21.80;14.50;;;;;;;11.30;40.37;100974.48;104800;1267;59370;-77
2024/01/31 11:08:18;;;;;;;19.60;14.70;;;;;;;11.42;40.56;100964.91;104921;1267;70491;-76
2024/01/31 11:10:46;;;;;;;21.30;16.00;;;;;;;11.60;40.17;100968.13;105157;1268;72015;-76